Terminal Aerodrome Forecast
Issued by NWS Cheyenne, WY

Current Version | Previous Version | Text Only | Print | Product List | Glossary On
Versions: 1 2 3 4 5 6 7 8 9 10 11 12
000
FTUS45 KCYS 200527
TAFCYS
TAF
KCYS 200527Z 2006/2106 30008KT P6SM SKC
     FM201000 32009KT P6SM BKN100
     FM201400 01010KT P6SM SCT100
     FM201800 12012G18KT P6SM BKN100
     FM202100 12008KT P6SM VCTS BKN100CB
     FM210200 11007KT P6SM SCT100=

USA.gov is the U.S. government's official web portal to all federal, state and local government web resources and services.